Time;durP1;ratioP1;P1;durP2;ratioP2;P2;SDS_P1;SDS_P2;PMS_P1;PMS_P2;Temp;Humidity;BMP_temperature;BMP_pressure;BME280_temperature;BME280_humidity;BME280_pressure;Samples;Min_cycle;Max_cycle;Signal;HPM_P1;HPM_P2
2021/11/19 00:00:28;;;;;;;18.80;12.82;;;;;;;5.22;100.00;97705.13;5002262;28;20065;-58
2021/11/19 00:02:57;;;;;;;20.90;13.55;;;;;;;5.29;100.00;97705.63;4993367;28;20062;-58
2021/11/19 00:05:25;;;;;;;17.13;12.68;;;;;;;5.37;100.00;97706.09;4997744;28;20069;-61
2021/11/19 00:07:54;;;;;;;17.83;12.45;;;;;;;5.21;100.00;97708.66;4996041;28;20074;-55
2021/11/19 00:10:24;;;;;;;18.55;12.68;;;;;;;5.07;100.00;97713.78;4997434;28;20070;-57
2021/11/19 00:12:52;;;;;;;16.88;12.50;;;;;;;4.85;100.00;97707.03;5000178;28;20072;-57
2021/11/19 00:15:21;;;;;;;18.17;13.10;;;;;;;4.65;100.00;97713.28;4996698;28;20085;-59
2021/11/19 00:17:50;;;;;;;18.00;13.15;;;;;;;4.34;100.00;97713.13;4994439;28;20038;-60
2021/11/19 00:20:21;;;;;;;17.98;13.15;;;;;;;4.20;100.00;97716.41;4996106;28;20089;-58
2021/11/19 00:22:50;;;;;;;;;;;;;;;4.42;100.00;97709.19;4998219;28;20085;-59
2021/11/19 00:25:18;;;;;;;22.60;13.90;;;;;;;4.63;100.00;97715.13;4994210;28;20356;-56
2021/11/19 00:27:48;;;;;;;20.75;14.45;;;;;;;4.51;100.00;97718.34;4984235;28;20070;-57
2021/11/19 00:30:18;;;;;;;21.50;14.32;;;;;;;4.94;100.00;97718.78;4979229;28;20088;-60
2021/11/19 00:32:47;;;;;;;23.23;15.23;;;;;;;4.89;100.00;97720.81;4973663;28;20496;-59
2021/11/19 00:35:17;;;;;;;22.77;14.90;;;;;;;4.74;100.00;97714.56;4980589;28;20077;-58
2021/11/19 00:37:48;;;;;;;23.23;14.85;;;;;;;4.77;100.00;97722.25;4973526;28;20086;-59
2021/11/19 00:40:19;;;;;;;19.73;13.52;;;;;;;4.97;100.00;97714.25;4981579;28;20073;-58
2021/11/19 00:42:49;;;;;;;19.73;13.82;;;;;;;5.05;100.00;97711.22;4972449;28;20077;-59
2021/11/19 00:45:20;;;;;;;22.17;14.15;;;;;;;5.11;100.00;97720.53;4984492;28;20081;-58
2021/11/19 00:47:51;;;;;;;22.92;14.02;;;;;;;5.19;100.00;97718.34;4988989;28;20548;-59
2021/11/19 00:50:21;;;;;;;18.15;13.23;;;;;;;5.20;100.00;97712.22;4979521;28;20186;-61
2021/11/19 00:52:49;;;;;;;19.67;13.68;;;;;;;5.07;100.00;97717.22;4973399;28;20086;-58
2021/11/19 00:55:18;;;;;;;25.23;14.90;;;;;;;4.66;100.00;97709.72;4992885;28;20537;-60
2021/11/19 00:57:46;;;;;;;22.83;14.38;;;;;;;4.45;100.00;97719.50;4993542;28;20081;-57
2021/11/19 01:00:19;;;;;;;25.25;15.00;;;;;;;4.64;100.00;97711.56;4990675;28;20069;-57
2021/11/19 01:02:48;;;;;;;24.42;14.88;;;;;;;4.84;100.00;97710.56;4990884;28;20066;-59
2021/11/19 01:05:17;;;;;;;24.50;14.98;;;;;;;4.97;100.00;97710.78;4988913;28;20065;-59
2021/11/19 01:07:46;;;;;;;20.50;14.45;;;;;;;5.05;100.00;97721.69;4997495;28;20081;-59
2021/11/19 01:10:17;;;;;;;22.88;14.60;;;;;;;5.16;100.00;97724.59;4992707;28;20073;-60
2021/11/19 01:12:46;;;;;;;22.17;14.27;;;;;;;4.71;100.00;97720.81;4997229;28;20437;-56
2021/11/19 01:15:21;;;;;;;23.02;15.45;;;;;;;5.08;100.00;97723.31;4993468;28;20073;-59
2021/11/19 01:17:54;;;;;;;23.23;15.50;;;;;;;4.38;100.00;97725.94;4995010;28;20066;-58
2021/11/19 01:20:26;;;;;;;25.55;15.93;;;;;;;4.34;100.00;97715.72;4994362;28;20069;-58
2021/11/19 01:22:57;;;;;;;25.92;16.95;;;;;;;4.59;100.00;97715.34;4989902;28;20085;-60
2021/11/19 01:25:27;;;;;;;24.33;15.73;;;;;;;4.51;100.00;97711.34;5002001;28;20145;-60
2021/11/19 01:27:56;;;;;;;25.55;16.05;;;;;;;4.39;100.00;97711.94;4991598;28;20495;-58
2021/11/19 01:30:30;;;;;;;24.33;15.50;;;;;;;4.44;100.00;97706.50;4995670;28;20545;-57
2021/11/19 01:32:59;;;;;;;24.48;15.15;;;;;;;4.77;100.00;97711.81;4999696;28;20065;-58
2021/11/19 01:35:28;;;;;;;24.63;15.13;;;;;;;4.76;100.00;97708.34;4993490;28;20065;-61
2021/11/19 01:37:57;;;;;;;22.58;15.15;;;;;;;4.73;100.00;97710.28;4994605;28;20525;-57
2021/11/19 01:40:28;;;;;;;21.50;14.60;;;;;;;4.62;100.00;97710.81;4996368;28;20082;-61
2021/11/19 01:43:00;;;;;;;23.65;14.45;;;;;;;4.52;100.00;97720.03;4992238;28;20074;-56
2021/11/19 01:45:34;;;;;;;23.05;14.80;;;;;;;4.54;100.00;97710.34;4991801;28;20070;-61
2021/11/19 01:48:05;;;;;;;23.30;15.90;;;;;;;4.53;100.00;97713.88;4996540;28;20077;-59
2021/11/19 01:50:36;;;;;;;24.83;16.60;;;;;;;4.71;100.00;97712.09;4990970;28;20064;-58
2021/11/19 01:53:05;;;;;;;;;;;;;;;4.65;100.00;97713.28;5007269;28;20081;-60
2021/11/19 01:55:43;;;;;;;23.63;15.00;;;;;;;4.76;100.00;97716.19;4997810;28;19953;-59
2021/11/19 01:58:15;;;;;;;24.58;15.85;;;;;;;4.84;100.00;97714.94;4991107;28;20069;-60
2021/11/19 02:00:48;;;;;;;25.17;15.00;;;;;;;4.95;100.00;97723.06;4989677;28;20074;-59
2021/11/19 02:03:19;;;;;;;23.77;14.75;;;;;;;5.18;100.00;97716.66;4994478;28;20084;-60
2021/11/19 02:05:53;;;;;;;24.13;15.52;;;;;;;4.75;100.00;97727.56;4990282;28;20062;-60
2021/11/19 02:08:23;;;;;;;23.65;15.07;;;;;;;5.17;100.00;97735.91;4994918;28;20066;-60
2021/11/19 02:11:15;;;;;;;23.42;14.63;;;;;;;5.19;100.00;97742.72;4992897;28;20088;-60
2021/11/19 02:13:48;;;;;;;22.25;14.55;;;;;;;5.16;100.00;97739.44;4999492;28;20321;-61
2021/11/19 02:16:19;;;;;;;23.20;15.57;;;;;;;4.65;100.00;97736.78;4989110;28;20092;-58
2021/11/19 02:18:51;;;;;;;26.73;16.80;;;;;;;4.47;100.00;97724.63;4995702;28;20057;-61
2021/11/19 02:21:23;;;;;;;22.02;15.50;;;;;;;4.45;100.00;97732.53;4994533;28;20084;-60
2021/11/19 02:23:54;;;;;;;24.98;15.80;;;;;;;4.37;100.00;97721.66;4989213;28;20058;-60
2021/11/19 02:26:28;;;;;;;25.23;15.82;;;;;;;4.40;100.00;97724.06;4988980;28;20694;-60
2021/11/19 02:28:57;;;;;;;25.20;16.13;;;;;;;4.70;100.00;97719.09;4990392;28;20077;-58
2021/11/19 02:31:30;;;;;;;25.25;15.95;;;;;;;4.53;100.00;97719.94;4992533;28;20485;-60
2021/11/19 02:34:00;;;;;;;25.23;15.50;;;;;;;4.53;100.00;97745.22;4990822;28;20523;-60
2021/11/19 02:36:35;;;;;;;22.83;15.35;;;;;;;4.50;100.00;97743.59;4988922;28;20483;-59
2021/11/19 02:39:08;;;;;;;25.65;16.15;;;;;;;5.00;100.00;97737.63;4991563;28;20453;-56
2021/11/19 02:41:45;;;;;;;24.23;15.80;;;;;;;5.17;100.00;97735.91;4987408;28;20058;-59
2021/11/19 02:44:16;;;;;;;25.73;15.85;;;;;;;5.12;100.00;97735.28;4989775;28;20073;-53
2021/11/19 02:46:48;;;;;;;27.55;15.88;;;;;;;4.48;100.00;97742.00;5001199;28;20080;-58
2021/11/19 02:49:17;;;;;;;24.52;15.98;;;;;;;4.59;100.00;97742.31;4968865;28;20097;-60
2021/11/19 02:51:47;;;;;;;29.40;16.83;;;;;;;4.46;100.00;97741.22;4990406;28;20076;-59
2021/11/19 02:54:18;;;;;;;23.77;15.87;;;;;;;4.73;100.00;97739.84;4978161;28;20492;-60
2021/11/19 02:56:47;;;;;;;27.27;16.23;;;;;;;4.75;100.00;97735.41;4969840;28;21055;-60
2021/11/19 02:59:17;;;;;;;26.58;16.65;;;;;;;4.70;100.00;97732.16;4981097;28;20453;-60
2021/11/19 03:01:50;;;;;;;27.50;17.02;;;;;;;4.59;100.00;97723.19;4996985;28;20608;-58
2021/11/19 03:04:22;;;;;;;27.60;16.67;;;;;;;4.51;100.00;97729.63;4973909;28;21805;-60
2021/11/19 03:06:52;;;;;;;26.45;16.60;;;;;;;4.63;100.00;97724.72;4984764;28;20054;-59
2021/11/19 03:09:24;;;;;;;28.85;16.73;;;;;;;4.62;100.00;97723.03;4989484;28;20070;-59
2021/11/19 03:11:53;;;;;;;23.92;16.02;;;;;;;4.68;100.00;97713.13;4992726;28;20066;-59
2021/11/19 03:14:24;;;;;;;26.73;16.03;;;;;;;4.46;100.00;97713.34;4991607;28;20472;-60
2021/11/19 03:16:56;;;;;;;25.92;16.33;;;;;;;4.51;100.00;97726.19;4994383;28;20112;-61
2021/11/19 03:19:25;;;;;;;24.08;15.75;;;;;;;4.19;100.00;97723.34;4995487;28;20076;-57
2021/11/19 03:21:54;;;;;;;29.80;17.83;;;;;;;4.46;100.00;97726.41;4987560;28;20062;-59
2021/11/19 03:24:24;;;;;;;26.42;17.00;;;;;;;4.68;100.00;97722.72;4989558;28;20073;-60
2021/11/19 03:26:54;;;;;;;24.05;16.33;;;;;;;5.05;100.00;97719.06;4986520;28;20066;-59
2021/11/19 03:29:24;;;;;;;31.35;18.30;;;;;;;4.86;100.00;97705.28;4992002;28;20062;-61
2021/11/19 03:31:54;;;;;;;26.08;17.52;;;;;;;4.69;100.00;97699.13;4998741;28;20088;-58
2021/11/19 03:34:24;;;;;;;27.63;16.73;;;;;;;4.65;100.00;97705.44;4992637;28;20218;-60
2021/11/19 03:36:54;;;;;;;28.83;18.45;;;;;;;4.60;100.00;97696.97;4993894;28;20061;-60
2021/11/19 03:39:25;;;;;;;25.90;16.02;;;;;;;4.40;100.00;97699.72;4999454;28;20061;-60
2021/11/19 03:41:56;;;;;;;25.02;16.45;;;;;;;4.52;100.00;97702.59;4995318;28;20329;-60
2021/11/19 03:44:29;;;;;;;28.30;17.77;;;;;;;4.72;100.00;97714.66;5010644;28;20364;-61
2021/11/19 03:47:04;;;;;;;24.67;16.10;;;;;;;4.66;100.00;97714.97;4996043;28;20101;-61
2021/11/19 03:49:35;;;;;;;26.63;16.92;;;;;;;4.89;100.00;97712.97;4999123;28;20084;-60
2021/11/19 03:52:19;;;;;;;24.92;16.35;;;;;;;4.64;100.00;97700.28;4997009;28;20065;-62
2021/11/19 03:54:49;;;;;;;26.55;16.77;;;;;;;4.71;100.00;97706.88;4995624;28;20149;-59
2021/11/19 03:57:19;;;;;;;25.85;16.63;;;;;;;4.73;100.00;97705.88;4994743;28;20078;-61
2021/11/19 03:59:49;;;;;;;25.00;16.43;;;;;;;4.44;100.00;97701.25;4992517;28;20117;-59
2021/11/19 04:02:20;;;;;;;27.05;16.77;;;;;;;4.68;100.00;97710.50;4994105;28;20058;-60
2021/11/19 04:04:48;;;;;;;24.27;15.48;;;;;;;4.90;100.00;97707.63;4998768;28;20085;-61
2021/11/19 04:07:18;;;;;;;26.60;17.45;;;;;;;4.87;100.00;97712.19;4994743;28;20077;-59
2021/11/19 04:09:47;;;;;;;25.67;16.03;;;;;;;5.05;100.00;97713.00;4995970;28;20070;-56
2021/11/19 04:12:18;;;;;;;26.23;16.35;;;;;;;5.11;100.00;97713.53;4989374;28;20093;-60
2021/11/19 04:14:47;;;;;;;25.80;16.55;;;;;;;5.13;100.00;97713.47;4997850;28;20065;-60
2021/11/19 04:17:16;;;;;;;25.10;16.35;;;;;;;4.27;100.00;97725.63;4994697;28;20066;-62
2021/11/19 04:19:46;;;;;;;24.63;15.88;;;;;;;4.57;100.00;97719.78;4990717;28;20077;-61
2021/11/19 04:22:18;;;;;;;26.13;15.88;;;;;;;4.63;100.00;97715.13;4993753;28;20667;-60
2021/11/19 04:24:49;;;;;;;25.38;16.48;;;;;;;4.72;100.00;97706.81;4991501;28;20078;-60
2021/11/19 04:27:17;;;;;;;24.50;16.17;;;;;;;4.62;100.00;97709.97;4993217;28;20062;-61
2021/11/19 04:29:46;;;;;;;24.67;16.65;;;;;;;4.56;100.00;97702.44;4995117;28;20074;-59
2021/11/19 04:32:21;;;;;;;25.45;16.13;;;;;;;4.47;100.00;97702.00;4994102;28;20085;-60
2021/11/19 04:34:52;;;;;;;23.20;15.30;;;;;;;4.34;100.00;97700.06;4999994;28;20089;-61
2021/11/19 04:37:21;;;;;;;25.10;16.25;;;;;;;4.47;100.00;97699.38;4975555;28;20089;-61
2021/11/19 04:39:49;;;;;;;24.52;16.20;;;;;;;4.37;100.00;97697.28;4996744;28;20077;-60
2021/11/19 04:42:18;;;;;;;23.00;15.43;;;;;;;4.43;100.00;97689.13;4996690;28;20038;-62
2021/11/19 04:44:47;;;;;;;24.15;15.07;;;;;;;4.17;100.00;97695.66;4993295;28;20057;-61
2021/11/19 04:47:15;;;;;;;22.67;14.10;;;;;;;3.98;100.00;97690.47;4993369;28;20723;-59
2021/11/19 04:49:44;;;;;;;21.55;14.25;;;;;;;3.80;100.00;97694.81;4996869;28;20072;-61
2021/11/19 04:52:15;;;;;;;22.60;14.23;;;;;;;4.19;100.00;97694.63;4993702;28;20089;-61
2021/11/19 04:54:44;;;;;;;22.30;14.02;;;;;;;4.04;100.00;97693.63;4989163;28;20066;-60
2021/11/19 04:57:13;;;;;;;25.10;15.48;;;;;;;4.22;100.00;97704.09;4992264;28;20073;-61
2021/11/19 04:59:42;;;;;;;24.55;16.10;;;;;;;4.27;100.00;97695.13;4999346;28;20464;-57
2021/11/19 05:02:13;;;;;;;23.17;15.27;;;;;;;4.32;100.00;97697.50;4991749;28;20536;-58
2021/11/19 05:04:43;;;;;;;24.50;15.88;;;;;;;4.53;100.00;97693.81;4997328;28;20528;-60
2021/11/19 05:07:11;;;;;;;25.80;15.90;;;;;;;4.74;100.00;97699.72;4993422;28;20584;-58
2021/11/19 05:09:41;;;;;;;22.52;15.18;;;;;;;4.68;100.00;97704.41;5008256;28;20069;-61
2021/11/19 05:12:14;;;;;;;23.27;15.23;;;;;;;4.24;100.00;97699.66;4996524;28;20134;-59
2021/11/19 05:14:44;;;;;;;24.35;14.88;;;;;;;4.41;100.00;97694.44;4993400;28;20335;-58
2021/11/19 05:17:13;;;;;;;23.43;15.43;;;;;;;4.35;100.00;97680.84;4993026;28;20526;-59
2021/11/19 05:19:41;;;;;;;23.92;15.35;;;;;;;4.14;100.00;97677.53;4995077;28;20081;-61
2021/11/19 05:22:10;;;;;;;23.35;14.70;;;;;;;4.25;100.00;97685.69;4991953;28;20078;-61
2021/11/19 05:24:40;;;;;;;25.98;15.13;;;;;;;4.23;100.00;97687.50;4990069;28;20062;-61
2021/11/19 05:27:09;;;;;;;23.80;14.50;;;;;;;4.29;100.00;97681.97;4992390;28;20069;-61
2021/11/19 05:29:38;;;;;;;24.45;15.40;;;;;;;4.61;100.00;97688.25;4994860;28;20061;-61
2021/11/19 05:32:08;;;;;;;27.50;15.90;;;;;;;4.61;100.00;97684.75;4986805;28;20061;-60
2021/11/19 05:34:36;;;;;;;25.55;15.48;;;;;;;4.85;100.00;97691.38;4992852;28;20081;-60
2021/11/19 05:37:05;;;;;;;25.60;15.10;;;;;;;5.08;100.00;97692.75;5002596;28;20072;-60
2021/11/19 05:39:34;;;;;;;25.13;15.82;;;;;;;4.92;100.00;97703.19;4994529;28;20069;-58
2021/11/19 05:42:05;;;;;;;24.88;15.93;;;;;;;4.64;100.00;97695.88;4990010;28;20080;-62
2021/11/19 05:44:35;;;;;;;27.30;15.88;;;;;;;4.58;100.00;97688.38;5005753;28;20068;-61
2021/11/19 05:47:04;;;;;;;;;;;;;;;4.62;100.00;97682.06;4989532;28;20093;-58
2021/11/19 05:49:32;;;;;;;25.67;15.63;;;;;;;4.63;100.00;97688.16;4993066;28;19994;-61
2021/11/19 05:52:02;;;;;;;26.80;15.65;;;;;;;4.97;100.00;97703.78;4987797;28;20066;-61
2021/11/19 05:54:33;;;;;;;25.77;16.00;;;;;;;5.19;100.00;97703.50;4993012;28;20066;-61
2021/11/19 05:57:02;;;;;;;27.05;16.10;;;;;;;4.90;100.00;97698.97;4986139;28;20097;-61
2021/11/19 05:59:32;;;;;;;23.90;16.00;;;;;;;4.88;100.00;97693.78;4987056;28;20065;-60
2021/11/19 06:02:00;;;;;;;24.23;15.88;;;;;;;4.72;100.00;97698.13;4986598;28;20551;-62
2021/11/19 06:04:29;;;;;;;26.27;16.38;;;;;;;5.04;100.00;97703.47;4995260;28;20426;-61
2021/11/19 06:06:58;;;;;;;23.83;15.23;;;;;;;5.12;100.00;97701.28;4992334;28;20069;-60
2021/11/19 06:09:29;;;;;;;23.92;14.90;;;;;;;5.12;100.00;97698.69;4989549;28;20073;-60
2021/11/19 06:12:01;;;;;;;27.58;15.90;;;;;;;5.16;100.00;97713.28;4986512;28;20069;-59
2021/11/19 06:14:35;;;;;;;25.10;15.80;;;;;;;5.19;100.00;97719.19;4988600;28;20070;-61
2021/11/19 06:17:06;;;;;;;24.75;15.23;;;;;;;5.32;100.00;97724.63;4968409;28;20097;-60
2021/11/19 06:19:38;;;;;;;24.70;16.13;;;;;;;5.37;100.00;97725.25;4989141;28;20089;-60
2021/11/19 06:22:09;;;;;;;24.88;15.57;;;;;;;5.41;100.00;97724.16;4988049;28;20061;-62
2021/11/19 06:24:40;;;;;;;24.58;15.23;;;;;;;5.35;100.00;97726.25;4986182;28;20074;-62
2021/11/19 06:27:11;;;;;;;22.83;14.75;;;;;;;5.22;100.00;97741.72;4983861;28;20078;-61
2021/11/19 06:29:41;;;;;;;23.70;14.85;;;;;;;5.24;100.00;97737.28;4976088;28;20066;-60
2021/11/19 06:32:09;;;;;;;24.13;15.80;;;;;;;4.84;100.00;97744.53;5004207;28;20701;-61
2021/11/19 06:34:38;;;;;;;23.27;14.05;;;;;;;4.89;100.00;97754.78;4997618;28;20082;-62
2021/11/19 06:37:06;;;;;;;22.35;13.95;;;;;;;4.69;100.00;97754.00;4992368;28;20061;-57
2021/11/19 06:39:38;;;;;;;24.02;14.40;;;;;;;4.15;100.00;97760.13;4995900;28;20073;-61
2021/11/19 06:42:07;;;;;;;22.05;14.40;;;;;;;4.46;100.00;97754.28;5003605;28;20088;-58
2021/11/19 06:44:36;;;;;;;22.63;14.73;;;;;;;4.44;100.00;97762.22;4992160;28;20068;-60
2021/11/19 06:47:07;;;;;;;24.63;14.43;;;;;;;4.68;100.00;97762.78;4985614;28;20070;-58
2021/11/19 06:49:36;;;;;;;21.45;13.82;;;;;;;4.66;100.00;97766.38;4992571;28;20711;-60
2021/11/19 06:52:06;;;;;;;22.30;13.80;;;;;;;4.61;100.00;97768.34;4986442;28;20668;-59
2021/11/19 06:54:36;;;;;;;23.02;14.23;;;;;;;4.56;100.00;97765.97;4985864;28;20069;-61
2021/11/19 06:57:05;;;;;;;22.55;13.77;;;;;;;4.61;100.00;97765.75;4986494;28;20073;-59
2021/11/19 06:59:39;;;;;;;25.30;14.93;;;;;;;4.87;100.00;97765.28;4985382;28;20089;-60
2021/11/19 07:02:10;;;;;;;21.92;15.20;;;;;;;4.95;100.00;97765.75;4984820;28;20070;-60
2021/11/19 07:04:39;;;;;;;23.17;14.13;;;;;;;4.70;100.00;97754.84;4996942;28;20073;-59
2021/11/19 07:07:08;;;;;;;25.92;14.50;;;;;;;4.51;100.00;97744.47;4994528;28;20058;-59
2021/11/19 07:09:38;;;;;;;21.88;14.70;;;;;;;4.41;100.00;97743.22;4990058;28;20073;-61
2021/11/19 07:12:08;;;;;;;24.23;15.02;;;;;;;4.74;100.00;97740.69;4993875;28;20108;-60
2021/11/19 07:14:37;;;;;;;22.08;14.43;;;;;;;4.88;100.00;97742.63;4994123;28;20062;-61
2021/11/19 07:17:07;;;;;;;24.92;15.52;;;;;;;5.23;100.00;97744.28;4990004;28;20081;-58
2021/11/19 07:19:38;;;;;;;24.10;14.37;;;;;;;5.06;100.00;97748.66;4992189;28;20097;-60
2021/11/19 07:22:07;;;;;;;23.10;15.05;;;;;;;5.21;100.00;97751.34;4996470;28;21293;-61
2021/11/19 07:24:37;;;;;;;24.33;15.57;;;;;;;5.41;100.00;97742.47;4992397;28;20085;-60
2021/11/19 07:27:07;;;;;;;26.40;14.95;;;;;;;5.14;100.00;97749.97;4991449;28;20524;-61
2021/11/19 07:29:36;;;;;;;25.48;15.65;;;;;;;5.47;100.00;97757.84;5001982;28;20070;-60
2021/11/19 07:32:05;;;;;;;23.73;14.52;;;;;;;5.71;100.00;97758.31;4990152;28;20085;-62
2021/11/19 07:34:34;;;;;;;23.00;14.95;;;;;;;5.64;100.00;97766.53;5001668;28;20487;-60
2021/11/19 07:37:04;;;;;;;24.77;15.02;;;;;;;5.71;100.00;97773.13;5001039;28;20073;-60
2021/11/19 07:39:33;;;;;;;22.45;14.43;;;;;;;6.10;100.00;97777.19;4997536;28;20070;-61
2021/11/19 07:42:01;;;;;;;23.27;14.68;;;;;;;6.04;100.00;97773.13;4993573;28;20127;-59
2021/11/19 07:44:30;;;;;;;21.50;14.07;;;;;;;6.17;100.00;97773.31;4994040;28;20093;-59
2021/11/19 07:46:59;;;;;;;24.70;15.05;;;;;;;5.95;100.00;97773.63;4997353;28;20073;-58
2021/11/19 07:49:27;;;;;;;24.27;15.07;;;;;;;6.70;100.00;97782.53;4994408;28;20500;-61
2021/11/19 07:51:56;;;;;;;23.23;14.30;;;;;;;7.04;100.00;97785.81;4990195;28;20070;-61
2021/11/19 07:54:26;;;;;;;23.58;15.05;;;;;;;7.07;100.00;97772.53;4988871;28;20077;-62
2021/11/19 07:56:55;;;;;;;22.10;14.70;;;;;;;6.68;100.00;97783.56;4995397;28;20062;-61
2021/11/19 07:59:26;;;;;;;22.98;15.23;;;;;;;6.90;100.00;97776.97;4989146;28;20073;-60
2021/11/19 08:01:59;;;;;;;23.83;14.30;;;;;;;7.00;100.00;97786.94;4995660;28;20081;-59
2021/11/19 08:04:30;;;;;;;21.45;14.00;;;;;;;6.61;100.00;97783.91;4990731;28;20078;-61
2021/11/19 08:06:59;;;;;;;20.05;13.68;;;;;;;6.54;100.00;97785.19;4989336;28;20062;-61
2021/11/19 08:09:30;;;;;;;18.60;12.52;;;;;;;7.01;100.00;97783.38;4994274;28;20077;-61
2021/11/19 08:11:59;;;;;;;19.27;12.25;;;;;;;6.93;100.00;97780.38;4996295;28;20073;-59
2021/11/19 08:14:28;;;;;;;20.23;12.98;;;;;;;7.15;100.00;97780.78;4989756;28;20475;-61
2021/11/19 08:16:58;;;;;;;17.65;12.35;;;;;;;7.05;100.00;97779.63;4996656;28;20078;-61
2021/11/19 08:19:31;;;;;;;27.42;14.20;;;;;;;6.49;100.00;97784.59;4990684;28;20086;-60
2021/11/19 08:22:02;;;;;;;26.33;13.90;;;;;;;6.39;100.00;97786.03;4988017;28;20074;-62
2021/11/19 08:24:32;;;;;;;20.70;14.13;;;;;;;6.93;100.00;97775.97;4996383;28;20074;-60
2021/11/19 08:27:05;;;;;;;27.50;14.48;;;;;;;7.10;100.00;97783.69;5002874;28;20089;-61
2021/11/19 08:29:35;;;;;;;20.48;13.52;;;;;;;6.92;100.00;97774.28;4994823;28;20062;-61
2021/11/19 08:32:05;;;;;;;24.20;14.32;;;;;;;7.25;100.00;97776.66;4988557;28;20168;-60
2021/11/19 08:34:34;;;;;;;;;;;;;;;7.14;100.00;97774.69;4997515;28;20343;-60
2021/11/19 08:37:02;;;;;;;20.05;13.18;;;;;;;6.78;100.00;97776.84;4988132;28;19961;-59
2021/11/19 08:39:33;;;;;;;23.17;13.43;;;;;;;7.27;100.00;97769.56;4987941;28;20078;-61
2021/11/19 08:42:01;;;;;;;20.73;13.68;;;;;;;7.09;100.00;97776.75;4994608;28;20073;-60
2021/11/19 08:44:30;;;;;;;21.80;14.35;;;;;;;7.68;100.00;97778.50;4995307;28;20080;-61
2021/11/19 08:47:18;;;;;;;21.85;14.02;;;;;;;7.88;100.00;97775.50;4988213;28;20077;-59
2021/11/19 08:49:46;;;;;;;;;;;;;;;7.75;100.00;97779.81;4994697;28;20467;-61
2021/11/19 08:52:17;;;;;;;20.08;13.30;;;;;;;7.75;100.00;97769.31;4992527;28;19964;-61
2021/11/19 08:54:47;;;;;;;19.92;13.68;;;;;;;8.03;100.00;97771.88;5000588;28;20070;-60
2021/11/19 08:57:20;;;;;;;24.83;14.50;;;;;;;7.90;100.00;97770.13;4990415;28;20070;-60
2021/11/19 08:59:50;;;;;;;23.98;13.48;;;;;;;7.77;100.00;97767.41;4988332;28;20692;-59
2021/11/19 09:02:21;;;;;;;18.80;13.52;;;;;;;7.79;100.00;97769.00;4987939;28;20046;-61
2021/11/19 09:05:07;;;;;;;22.15;13.73;;;;;;;7.64;100.00;97769.97;4987746;28;20104;-60
2021/11/19 09:07:37;;;;;;;21.50;13.32;;;;;;;8.06;100.00;97774.31;4992395;28;20077;-61
2021/11/19 09:10:11;;;;;;;18.30;12.77;;;;;;;8.28;100.00;97779.06;4987849;28;20069;-60
2021/11/19 09:12:39;;;;;;;22.35;14.05;;;;;;;8.09;100.00;97775.94;4992408;28;20520;-59
2021/11/19 09:15:10;;;;;;;22.30;13.98;;;;;;;8.36;100.00;97772.47;4987641;28;20074;-59
2021/11/19 09:17:50;;;;;;;21.98;14.93;;;;;;;8.57;100.00;97773.75;4994289;28;20041;-60
2021/11/19 09:20:22;;;;;;;20.60;14.18;;;;;;;8.68;100.00;97773.91;4993008;28;20080;-59
2021/11/19 09:22:53;;;;;;;20.55;14.82;;;;;;;9.01;100.00;97756.81;5011222;28;20069;-59
2021/11/19 09:25:24;;;;;;;21.30;14.13;;;;;;;8.94;100.00;97758.16;4991931;28;20332;-59
2021/11/19 09:27:52;;;;;;;22.00;13.75;;;;;;;9.28;100.00;97756.72;4995871;28;20102;-61
2021/11/19 09:30:26;;;;;;;22.77;14.90;;;;;;;8.63;100.00;97764.59;4987138;28;20069;-59
2021/11/19 09:32:57;;;;;;;21.10;14.80;;;;;;;8.70;100.00;97760.63;4986445;28;20554;-60
2021/11/19 09:35:27;;;;;;;20.25;13.88;;;;;;;9.01;100.00;97751.53;4993127;28;20073;-59
2021/11/19 09:37:56;;;;;;;23.13;13.63;;;;;;;8.85;100.00;97743.84;4989604;28;20112;-61
2021/11/19 09:40:35;;;;;;;21.08;14.18;;;;;;;8.61;100.00;97748.94;4992785;28;20074;-61
2021/11/19 09:43:11;;;;;;;19.60;14.25;;;;;;;9.20;100.00;97754.63;4986866;28;20074;-62
2021/11/19 09:46:00;;;;;;;20.10;14.40;;;;;;;9.15;100.00;97758.50;4987390;28;20062;-60
2021/11/19 09:48:42;;;;;;;21.10;14.65;;;;;;;9.11;100.00;97760.50;4993477;28;20074;-60
2021/11/19 09:51:47;;;;;;;19.05;13.48;;;;;;;9.20;100.00;97756.41;4989850;28;20564;-61
2021/11/19 09:55:00;;;;;;;21.05;14.00;;;;;;;9.55;100.00;97746.09;4986691;28;20489;-61
2021/11/19 09:58:03;;;;;;;20.52;14.00;;;;;;;9.22;100.00;97751.88;4979098;28;20073;-60
2021/11/19 10:00:39;;;;;;;21.15;14.48;;;;;;;9.52;100.00;97746.31;4999685;28;20096;-60
2021/11/19 10:03:25;;;;;;;20.20;14.00;;;;;;;9.34;100.00;97752.84;4992407;28;20089;-57
2021/11/19 10:05:57;;;;;;;21.55;14.63;;;;;;;9.50;100.00;97759.59;4987214;28;20057;-58
2021/11/19 10:08:50;;;;;;;22.40;14.82;;;;;;;9.73;100.00;97749.22;4989260;28;20104;-59
2021/11/19 10:11:23;;;;;;;24.85;15.85;;;;;;;9.48;100.00;97736.94;4986744;28;20069;-60
2021/11/19 10:14:23;;;;;;;22.85;16.25;;;;;;;9.85;100.00;97732.56;4992731;28;20622;-58
2021/11/19 10:17:31;;;;;;;23.52;15.38;;;;;;;9.78;100.00;97726.06;4992443;28;20310;-58
2021/11/19 10:20:02;;;;;;;22.10;15.73;;;;;;;9.79;100.00;97726.91;4966441;28;20639;-60
2021/11/19 10:22:33;;;;;;;25.17;15.23;;;;;;;9.81;100.00;97732.91;4996504;28;20078;-60
2021/11/19 10:25:09;;;;;;;21.83;15.60;;;;;;;9.88;100.00;97732.38;4972135;28;20074;-60
2021/11/19 10:27:40;;;;;;;25.25;17.00;;;;;;;9.71;100.00;97727.44;4987319;28;20452;-61
2021/11/19 10:30:25;;;;;;;26.83;16.50;;;;;;;9.55;100.00;97725.03;4986393;28;20784;-59
2021/11/19 10:32:54;;;;;;;22.17;15.15;;;;;;;9.56;100.00;97726.69;4986219;28;20066;-58
2021/11/19 10:35:40;;;;;;;22.45;15.77;;;;;;;9.67;100.00;97732.09;4998894;28;20057;-59
2021/11/19 10:38:42;;;;;;;22.05;16.10;;;;;;;9.94;100.00;97724.03;4992117;28;20088;-60
2021/11/19 10:42:03;;;;;;;23.05;15.73;;;;;;;9.49;100.00;97725.44;4998672;28;20084;-60
2021/11/19 10:44:32;;;;;;;;;;;;;;;9.75;100.00;97727.09;4986405;28;20077;-60
2021/11/19 10:47:21;;;;;;;23.17;15.77;;;;;;;9.49;100.00;97718.38;4986487;28;20360;-61
2021/11/19 10:50:01;;;;;;;23.40;15.52;;;;;;;9.67;100.00;97707.50;4991112;28;20132;-56
2021/11/19 10:53:19;;;;;;;24.08;15.68;;;;;;;9.70;100.00;97705.53;4985657;28;20112;-61
2021/11/19 10:56:24;;;;;;;28.17;16.67;;;;;;;9.62;100.00;97699.09;4993202;28;20254;-61
2021/11/19 10:58:55;;;;;;;23.30;15.60;;;;;;;9.70;100.00;97699.41;4960630;28;20337;-58
2021/11/19 11:01:47;;;;;;;22.00;14.85;;;;;;;9.54;100.00;97697.03;5001461;28;21102;-60
2021/11/19 11:04:27;;;;;;;21.83;15.15;;;;;;;9.82;100.00;97700.34;4991076;28;20069;-59
2021/11/19 11:07:09;;;;;;;;;;;;;;;9.42;100.00;97697.88;4994148;28;20590;-60
2021/11/19 11:09:44;;;;;;;22.30;14.65;;;;;;;9.83;100.00;97694.09;4990859;28;19953;-60
2021/11/19 11:12:22;;;;;;;20.80;14.40;;;;;;;9.63;100.00;97685.81;4993072;28;20066;-58
2021/11/19 11:15:22;;;;;;;21.73;14.80;;;;;;;9.96;100.00;97682.56;4990073;28;20437;-57
2021/11/19 11:17:58;;;;;;;21.33;15.60;;;;;;;10.47;100.00;97671.00;4988792;28;20066;-57
2021/11/19 11:20:32;;;;;;;21.00;15.23;;;;;;;10.63;100.00;97665.41;4986362;28;20344;-59
2021/11/19 11:23:03;;;;;;;24.25;15.65;;;;;;;10.33;100.00;97660.63;4985779;28;20062;-61
2021/11/19 11:25:34;;;;;;;20.55;14.07;;;;;;;10.63;100.00;97658.34;4988297;28;20169;-60
2021/11/19 11:28:11;;;;;;;19.92;14.20;;;;;;;10.62;100.00;97659.28;4986220;28;20050;-61
2021/11/19 11:30:52;;;;;;;20.17;13.10;;;;;;;10.44;100.00;97653.59;4990093;28;20062;-59
2021/11/19 11:33:23;;;;;;;19.85;13.98;;;;;;;10.85;100.00;97649.66;4987981;28;20082;-61
2021/11/19 11:35:56;;;;;;;20.70;14.35;;;;;;;10.71;100.00;97641.09;4987173;28;20062;-59
2021/11/19 11:38:45;;;;;;;19.13;14.07;;;;;;;10.83;100.00;97641.00;4985917;28;20058;-58
2021/11/19 11:41:19;;;;;;;19.63;14.13;;;;;;;11.31;100.00;97645.25;4994968;28;20106;-59
2021/11/19 11:44:04;;;;;;;19.55;13.20;;;;;;;10.98;100.00;97644.28;5010933;28;20077;-60